Time,TemperatureF,DewpointF,PressureIn,WindDirection,WindDirectionDegrees,WindSpeedMPH,WindSpeedGustMPH,Humidity,HourlyPrecipIn,Conditions,Clouds,dailyrainin,SoftwareType,DateUTC
2013-06-21 00:01:00,58.7,20.0,29.53,SSE,152,3.0,5.0,22,0.00,,---,0.00,VWS V12.07,2013-06-21 06:01:00,
2013-06-21 00:16:00,58.6,19.9,29.51,SSE,165,4.0,7.0,22,0.00,,---,0.00,VWS V12.07,2013-06-21 06:16:00,
2013-06-21 00:29:00,57.7,19.1,29.52,SSE,163,5.0,7.0,22,0.00,,---,0.00,VWS V12.07,2013-06-21 06:29:00,
2013-06-21 00:31:00,57.7,19.1,29.52,SSE,163,5.0,7.0,22,0.00,,---,0.00,VWS V12.07,2013-06-21 06:31:00,
2013-06-21 08:01:00,65.5,27.8,29.54,ESE,121,2.0,6.0,24,0.00,,---,0.00,VWS V12.07,2013-06-21 14:01:00,
2013-06-21 08:16:00,66.2,27.3,29.58,ESE,118,6.0,8.0,23,0.00,,---,0.00,VWS V12.07,2013-06-21 14:16:00,
2013-06-21 08:31:00,68.1,23.0,29.56,South,180,0.0,3.0,18,0.00,,---,0.00,VWS V12.07,2013-06-21 14:31:00,
2013-06-21 08:46:00,69.4,26.6,29.55,ESE,102,3.0,6.0,20,0.00,,---,0.00,VWS V12.07,2013-06-21 14:46:00,
2013-06-21 09:01:00,70.9,25.3,29.55,East,89,0.0,3.0,18,0.00,,---,0.00,VWS V12.07,2013-06-21 15:01:00,
2013-06-21 09:16:00,72.4,23.7,29.55,SW,227,3.0,23.0,16,0.00,,---,0.00,VWS V12.07,2013-06-21 15:16:00,
2013-06-21 09:31:00,72.3,25.1,29.57,SSW,194,4.0,10.0,17,0.00,,---,0.00,VWS V12.07,2013-06-21 15:31:00,
2013-06-21 09:46:00,73.8,24.8,29.55,SW,232,3.0,24.0,16,0.00,,---,0.00,VWS V12.07,2013-06-21 15:46:00,
2013-06-21 10:01:00,73.6,24.7,29.56,SW,225,2.0,16.0,16,0.00,,---,0.00,VWS V12.07,2013-06-21 16:01:00,
2013-06-21 10:16:00,74.1,25.1,29.56,WSW,248,9.0,19.0,16,0.00,,---,0.00,VWS V12.07,2013-06-21 16:16:00,
2013-06-21 10:31:00,74.2,25.2,29.56,SSW,211,10.0,16.0,16,0.00,,---,0.00,VWS V12.07,2013-06-21 16:31:00,
2013-06-21 10:46:00,75.1,24.3,29.55,South,188,10.0,18.0,15,0.00,,---,0.00,VWS V12.07,2013-06-21 16:46:00,
2013-06-21 11:01:00,74.7,24.0,29.55,South,187,6.0,6.0,15,0.00,,---,0.00,VWS V12.07,2013-06-21 17:01:00,
2013-06-21 11:16:00,75.6,27.8,29.57,West,273,3.0,30.0,17,0.00,,---,0.00,VWS V12.07,2013-06-21 17:16:00,
2013-06-21 12:16:00,77.0,27.4,29.58,WSW,246,6.0,24.0,16,0.00,,---,0.00,VWS V12.07,2013-06-21 18:16:00,
2013-06-21 12:31:00,77.6,26.3,29.58,West,263,10.0,14.0,15,0.00,,---,0.00,VWS V12.07,2013-06-21 18:31:00,
2013-06-21 12:46:00,77.2,26.0,29.58,SW,221,9.0,29.0,15,0.00,,---,0.00,VWS V12.07,2013-06-21 18:46:00,
2013-06-21 13:01:00,78.7,25.5,29.56,West,279,10.0,13.0,14,0.00,,---,0.00,VWS V12.07,2013-06-21 19:01:00,
2013-06-21 13:16:00,79.5,27.9,29.52,SW,233,7.0,25.0,15,0.00,,---,0.00,VWS V12.07,2013-06-21 19:16:00,
2013-06-21 13:31:00,79.2,27.6,29.51,WNW,289,8.0,13.0,15,0.00,,---,0.00,VWS V12.07,2013-06-21 19:31:00,
2013-06-21 14:01:00,80.0,28.2,29.49,SSW,207,16.0,20.0,15,0.00,,---,0.00,VWS V12.07,2013-06-21 20:01:00,
2013-06-21 14:16:00,79.9,26.5,29.49,SW,219,14.0,27.0,14,0.00,,---,0.00,VWS V12.07,2013-06-21 20:16:00,
2013-06-21 14:31:00,80.0,24.8,29.49,West,267,6.0,17.0,13,0.00,,---,0.00,VWS V12.07,2013-06-21 20:31:00,
2013-06-21 15:01:00,79.8,26.4,29.48,WSW,246,18.0,18.0,14,0.00,,---,0.00,VWS V12.07,2013-06-21 21:01:00,
2013-06-21 15:16:00,79.5,26.2,29.48,WSW,248,7.0,22.0,14,0.00,,---,0.00,VWS V12.07,2013-06-21 21:16:00,
2013-06-21 15:31:00,79.6,26.3,29.48,WSW,245,10.0,15.0,14,0.00,,---,0.00,VWS V12.07,2013-06-21 21:31:00,
2013-06-21 16:01:00,81.0,25.6,29.47,WSW,242,12.0,22.0,13,0.00,,---,0.00,VWS V12.07,2013-06-21 22:01:00,
2013-06-21 16:16:00,80.7,25.3,29.48,SW,223,13.0,23.0,13,0.00,,---,0.00,VWS V12.07,2013-06-21 22:16:00,
2013-06-21 16:31:00,81.0,23.7,29.48,SW,219,11.0,17.0,12,0.00,,---,0.00,VWS V12.07,2013-06-21 22:31:00,
2013-06-21 16:46:00,81.1,23.7,29.48,SW,222,12.0,18.0,12,0.00,,---,0.00,VWS V12.07,2013-06-21 22:46:00,
2013-06-21 17:01:00,80.1,24.9,29.47,SW,232,7.0,9.0,13,0.00,,---,0.00,VWS V12.07,2013-06-21 23:01:00,
2013-06-21 17:16:00,80.4,21.1,29.51,SW,219,2.0,20.0,11,0.00,,---,0.00,VWS V12.07,2013-06-21 23:16:00,
2013-06-21 17:31:00,80.2,23.0,29.50,WSW,254,22.0,22.0,12,0.00,,---,0.00,VWS V12.07,2013-06-21 23:31:00,
2013-06-21 17:46:00,80.2,23.0,29.50,SW,223,12.0,22.0,12,0.00,,---,0.00,VWS V12.07,2013-06-21 23:46:00,
2013-06-21 18:01:00,79.3,24.2,29.51,WSW,237,7.0,10.0,13,0.00,,---,0.00,VWS V12.07,2013-06-22 00:01:00,
2013-06-21 18:16:00,78.7,23.8,29.48,West,270,4.0,22.0,13,0.00,,---,0.00,VWS V12.07,2013-06-22 00:16:00,
2013-06-21 18:31:00,78.2,25.1,29.49,SSW,210,3.0,9.0,14,0.00,,---,0.00,VWS V12.07,2013-06-22 00:31:00,
2013-06-21 18:46:00,77.8,24.8,29.49,WSW,243,3.0,26.0,14,0.00,,---,0.00,VWS V12.07,2013-06-22 00:46:00,
2013-06-21 19:01:00,77.4,22.8,29.49,SSW,203,11.0,14.0,13,0.00,,---,0.00,VWS V12.07,2013-06-22 01:01:00,
2013-06-21 19:16:00,76.6,22.1,29.45,South,185,14.0,26.0,13,0.00,,---,0.00,VWS V12.07,2013-06-22 01:16:00,
2013-06-21 19:31:00,76.2,23.6,29.45,SSW,195,5.0,6.0,14,0.00,,---,0.00,VWS V12.07,2013-06-22 01:31:00,
2013-06-21 19:46:00,75.4,21.2,29.46,SSW,211,10.0,23.0,13,0.00,,---,0.00,VWS V12.07,2013-06-22 01:46:00,
2013-06-21 20:01:00,74.4,20.4,29.48,SW,219,7.0,15.0,13,0.00,,---,0.00,VWS V12.07,2013-06-22 02:01:00,
2013-06-21 20:16:00,73.4,19.6,29.46,SSW,211,6.0,19.0,13,0.00,,---,0.00,VWS V12.07,2013-06-22 02:16:00,
2013-06-21 20:31:00,72.0,20.2,29.47,SSW,206,10.0,10.0,14,0.00,,---,0.00,VWS V12.07,2013-06-22 02:31:00,
2013-06-21 20:46:00,70.2,21.9,29.48,SSW,200,5.0,11.0,16,0.00,,---,0.00,VWS V12.07,2013-06-22 02:46:00,
2013-06-21 21:01:00,69.0,21.0,29.48,SW,215,4.0,8.0,16,0.00,,---,0.00,VWS V12.07,2013-06-22 03:01:00,
2013-06-21 21:16:00,68.0,21.6,29.47,SSW,210,6.0,10.0,17,0.00,,---,0.00,VWS V12.07,2013-06-22 03:16:00,
2013-06-21 21:31:00,67.3,21.0,29.50,SSW,213,6.0,8.0,17,0.00,,---,0.00,VWS V12.07,2013-06-22 03:31:00,
2013-06-21 21:46:00,66.4,18.9,29.51,SSW,205,7.0,9.0,16,0.00,,---,0.00,VWS V12.07,2013-06-22 03:46:00,
2013-06-21 22:01:00,66.0,18.5,29.51,SSW,207,7.0,7.0,16,0.00,,---,0.00,VWS V12.07,2013-06-22 04:01:00,
2013-06-21 22:16:00,65.3,19.4,29.51,SSW,202,6.0,9.0,17,0.00,,---,0.00,VWS V12.07,2013-06-22 04:16:00,
2013-06-21 22:31:00,64.4,18.7,29.51,SSW,203,4.0,6.0,17,0.00,,---,0.00,VWS V12.07,2013-06-22 04:31:00,
2013-06-21 22:46:00,63.4,19.2,29.53,SSW,199,5.0,7.0,18,0.00,,---,0.00,VWS V12.07,2013-06-22 04:46:00,
2013-06-21 23:01:00,62.5,18.5,29.54,SSW,194,5.0,6.0,18,0.00,,---,0.00,VWS V12.07,2013-06-22 05:01:00,
2013-06-21 23:16:00,62.0,18.0,29.54,SSW,200,5.0,7.0,18,0.00,,---,0.00,VWS V12.07,2013-06-22 05:16:00,
2013-06-21 23:46:00,62.2,18.2,29.54,SSW,202,4.0,9.0,18,0.00,,---,0.00,VWS V12.07,2013-06-22 05:46:00,